sensor_id;sensor_type;location;lat;lon;timestamp;temperature;humidity
3281;DHT22;1652;51.318;6.202;2023-03-13T00:01:38;10.80;99.90
3281;DHT22;1652;51.318;6.202;2023-03-13T00:04:05;10.80;99.90
3281;DHT22;1652;51.318;6.202;2023-03-13T00:06:35;10.70;99.90
3281;DHT22;1652;51.318;6.202;2023-03-13T00:09:03;10.70;99.90
3281;DHT22;1652;51.318;6.202;2023-03-13T00:11:31;10.70;99.90
3281;DHT22;1652;51.318;6.202;2023-03-13T00:14:00;10.70;99.90
3281;DHT22;1652;51.318;6.202;2023-03-13T00:16:28;10.70;99.90
3281;DHT22;1652;51.318;6.202;2023-03-13T00:18:56;10.70;99.90
3281;DHT22;1652;51.318;6.202;2023-03-13T00:21:25;10.60;99.90
3281;DHT22;1652;51.318;6.202;2023-03-13T00:23:53;10.60;99.90
3281;DHT22;1652;51.318;6.202;2023-03-13T00:26:22;10.60;99.90
3281;DHT22;1652;51.318;6.202;2023-03-13T00:28:50;10.60;99.90
3281;DHT22;1652;51.318;6.202;2023-03-13T00:31:20;10.50;99.90
3281;DHT22;1652;51.318;6.202;2023-03-13T00:33:50;10.50;99.90
3281;DHT22;1652;51.318;6.202;2023-03-13T00:36:23;10.50;99.90
3281;DHT22;1652;51.318;6.202;2023-03-13T00:38:51;10.40;99.90
3281;DHT22;1652;51.318;6.202;2023-03-13T00:41:21;10.40;99.90
3281;DHT22;1652;51.318;6.202;2023-03-13T00:43:49;10.30;99.90
3281;DHT22;1652;51.318;6.202;2023-03-13T00:46:18;10.30;99.90
3281;DHT22;1652;51.318;6.202;2023-03-13T00:48:45;10.30;99.90
3281;DHT22;1652;51.318;6.202;2023-03-13T00:51:14;10.40;99.90
3281;DHT22;1652;51.318;6.202;2023-03-13T00:53:41;10.40;99.90
3281;DHT22;1652;51.318;6.202;2023-03-13T00:56:11;10.40;99.90
3281;DHT22;1652;51.318;6.202;2023-03-13T00:58:39;10.50;99.90
3281;DHT22;1652;51.318;6.202;2023-03-13T01:01:15;10.50;99.90
3281;DHT22;1652;51.318;6.202;2023-03-13T01:03:44;10.50;99.90
3281;DHT22;1652;51.318;6.202;2023-03-13T01:06:14;10.40;99.90
3281;DHT22;1652;51.318;6.202;2023-03-13T01:08:41;10.40;99.90
3281;DHT22;1652;51.318;6.202;2023-03-13T01:11:11;10.40;99.90
3281;DHT22;1652;51.318;6.202;2023-03-13T01:13:39;10.40;99.90
3281;DHT22;1652;51.318;6.202;2023-03-13T01:16:12;10.40;99.90
3281;DHT22;1652;51.318;6.202;2023-03-13T01:18:42;10.40;99.90
3281;DHT22;1652;51.318;6.202;2023-03-13T01:21:10;10.40;99.90
3281;DHT22;1652;51.318;6.202;2023-03-13T01:26:12;10.30;99.90
3281;DHT22;1652;51.318;6.202;2023-03-13T01:28:39;10.30;99.90
3281;DHT22;1652;51.318;6.202;2023-03-13T01:31:20;10.30;99.90
3281;DHT22;1652;51.318;6.202;2023-03-13T01:33:50;10.20;99.90
3281;DHT22;1652;51.318;6.202;2023-03-13T01:36:17;10.20;99.90
3281;DHT22;1652;51.318;6.202;2023-03-13T01:38:48;10.20;99.90
3281;DHT22;1652;51.318;6.202;2023-03-13T01:41:17;10.20;99.90
3281;DHT22;1652;51.318;6.202;2023-03-13T01:43:45;10.20;99.90
3281;DHT22;1652;51.318;6.202;2023-03-13T01:51:23;10.20;99.90
3281;DHT22;1652;51.318;6.202;2023-03-13T01:53:58;10.20;99.90
3281;DHT22;1652;51.318;6.202;2023-03-13T01:56:34;10.20;99.90
3281;DHT22;1652;51.318;6.202;2023-03-13T01:59:04;10.30;99.90
3281;DHT22;1652;51.318;6.202;2023-03-13T02:01:33;10.30;99.90
3281;DHT22;1652;51.318;6.202;2023-03-13T02:04:00;10.30;99.90
3281;DHT22;1652;51.318;6.202;2023-03-13T02:06:29;10.30;99.90
3281;DHT22;1652;51.318;6.202;2023-03-13T02:09:08;10.30;99.90
3281;DHT22;1652;51.318;6.202;2023-03-13T02:11:49;10.30;99.90
3281;DHT22;1652;51.318;6.202;2023-03-13T02:14:19;10.30;99.90
3281;DHT22;1652;51.318;6.202;2023-03-13T02:16:48;10.30;99.90
3281;DHT22;1652;51.318;6.202;2023-03-13T02:19:24;10.30;99.90
3281;DHT22;1652;51.318;6.202;2023-03-13T02:22:02;10.40;99.90
3281;DHT22;1652;51.318;6.202;2023-03-13T02:27:06;10.40;99.90
3281;DHT22;1652;51.318;6.202;2023-03-13T02:29:33;10.40;99.90
3281;DHT22;1652;51.318;6.202;2023-03-13T02:32:00;10.40;99.90
3281;DHT22;1652;51.318;6.202;2023-03-13T02:34:31;10.40;99.90
3281;DHT22;1652;51.318;6.202;2023-03-13T02:37:00;10.50;99.90
3281;DHT22;1652;51.318;6.202;2023-03-13T02:39:28;10.50;99.90
3281;DHT22;1652;51.318;6.202;2023-03-13T02:41:57;10.60;99.90
3281;DHT22;1652;51.318;6.202;2023-03-13T02:44:25;10.60;99.90
3281;DHT22;1652;51.318;6.202;2023-03-13T02:46:52;10.60;99.90
3281;DHT22;1652;51.318;6.202;2023-03-13T02:49:22;10.60;99.90
3281;DHT22;1652;51.318;6.202;2023-03-13T02:51:49;10.70;99.90
3281;DHT22;1652;51.318;6.202;2023-03-13T02:54:22;10.70;99.90
3281;DHT22;1652;51.318;6.202;2023-03-13T02:56:55;10.70;99.90
3281;DHT22;1652;51.318;6.202;2023-03-13T02:59:23;10.70;99.90
3281;DHT22;1652;51.318;6.202;2023-03-13T03:01:50;10.70;99.90
3281;DHT22;1652;51.318;6.202;2023-03-13T03:04:22;10.80;99.90
3281;DHT22;1652;51.318;6.202;2023-03-13T03:06:50;10.80;99.90
3281;DHT22;1652;51.318;6.202;2023-03-13T03:09:18;10.80;99.90
3281;DHT22;1652;51.318;6.202;2023-03-13T03:11:45;10.90;99.90
3281;DHT22;1652;51.318;6.202;2023-03-13T03:14:12;10.90;99.90
3281;DHT22;1652;51.318;6.202;2023-03-13T03:16:40;10.90;99.90
3281;DHT22;1652;51.318;6.202;2023-03-13T03:19:07;10.90;99.90
3281;DHT22;1652;51.318;6.202;2023-03-13T03:21:34;11.00;99.90
3281;DHT22;1652;51.318;6.202;2023-03-13T03:24:01;11.00;99.90
3281;DHT22;1652;51.318;6.202;2023-03-13T03:26:28;11.00;99.90
3281;DHT22;1652;51.318;6.202;2023-03-13T03:28:54;11.00;99.90
3281;DHT22;1652;51.318;6.202;2023-03-13T03:31:21;11.00;99.90
3281;DHT22;1652;51.318;6.202;2023-03-13T03:33:48;11.00;99.90
3281;DHT22;1652;51.318;6.202;2023-03-13T03:36:18;11.10;99.90
3281;DHT22;1652;51.318;6.202;2023-03-13T03:38:45;11.10;99.90
3281;DHT22;1652;51.318;6.202;2023-03-13T03:41:13;11.10;99.90
3281;DHT22;1652;51.318;6.202;2023-03-13T03:43:40;11.10;99.90
3281;DHT22;1652;51.318;6.202;2023-03-13T03:46:07;11.20;99.90
3281;DHT22;1652;51.318;6.202;2023-03-13T03:48:35;11.20;99.90
3281;DHT22;1652;51.318;6.202;2023-03-13T03:51:03;11.20;99.90
3281;DHT22;1652;51.318;6.202;2023-03-13T03:53:30;11.30;99.90
3281;DHT22;1652;51.318;6.202;2023-03-13T03:55:58;11.30;99.90
3281;DHT22;1652;51.318;6.202;2023-03-13T03:58:25;11.40;99.90
3281;DHT22;1652;51.318;6.202;2023-03-13T04:00:52;11.40;99.90
3281;DHT22;1652;51.318;6.202;2023-03-13T04:03:18;11.40;99.90
3281;DHT22;1652;51.318;6.202;2023-03-13T04:05:45;11.50;99.90
3281;DHT22;1652;51.318;6.202;2023-03-13T04:08:12;11.50;99.90
3281;DHT22;1652;51.318;6.202;2023-03-13T04:10:40;11.50;99.90
3281;DHT22;1652;51.318;6.202;2023-03-13T04:13:07;11.50;99.90
3281;DHT22;1652;51.318;6.202;2023-03-13T04:15:33;11.50;99.90
3281;DHT22;1652;51.318;6.202;2023-03-13T04:18:00;11.60;99.90
3281;DHT22;1652;51.318;6.202;2023-03-13T04:20:27;11.60;99.90
3281;DHT22;1652;51.318;6.202;2023-03-13T04:22:54;11.70;99.90
3281;DHT22;1652;51.318;6.202;2023-03-13T04:25:21;11.70;99.90
3281;DHT22;1652;51.318;6.202;2023-03-13T04:27:48;11.70;99.90
3281;DHT22;1652;51.318;6.202;2023-03-13T04:30:15;11.70;99.90
3281;DHT22;1652;51.318;6.202;2023-03-13T04:32:44;11.70;99.90
3281;DHT22;1652;51.318;6.202;2023-03-13T04:35:11;11.70;99.90
3281;DHT22;1652;51.318;6.202;2023-03-13T04:37:38;11.80;99.90
3281;DHT22;1652;51.318;6.202;2023-03-13T04:40:05;11.80;99.90
3281;DHT22;1652;51.318;6.202;2023-03-13T04:42:32;11.90;99.90
3281;DHT22;1652;51.318;6.202;2023-03-13T04:44:59;11.90;99.90
3281;DHT22;1652;51.318;6.202;2023-03-13T04:47:26;11.90;99.90
3281;DHT22;1652;51.318;6.202;2023-03-13T04:49:52;11.90;99.90
3281;DHT22;1652;51.318;6.202;2023-03-13T04:52:19;11.80;99.90
3281;DHT22;1652;51.318;6.202;2023-03-13T04:54:46;11.90;99.90
3281;DHT22;1652;51.318;6.202;2023-03-13T04:57:13;11.90;99.90
3281;DHT22;1652;51.318;6.202;2023-03-13T04:59:40;12.00;99.90
3281;DHT22;1652;51.318;6.202;2023-03-13T05:02:11;11.90;99.90
3281;DHT22;1652;51.318;6.202;2023-03-13T05:04:38;12.00;99.90
3281;DHT22;1652;51.318;6.202;2023-03-13T05:07:05;12.00;99.90
3281;DHT22;1652;51.318;6.202;2023-03-13T05:09:32;12.00;99.90
3281;DHT22;1652;51.318;6.202;2023-03-13T05:11:59;12.00;99.90
3281;DHT22;1652;51.318;6.202;2023-03-13T05:14:26;12.00;99.90
3281;DHT22;1652;51.318;6.202;2023-03-13T05:16:52;12.10;99.90
3281;DHT22;1652;51.318;6.202;2023-03-13T05:19:19;12.10;99.90
3281;DHT22;1652;51.318;6.202;2023-03-13T05:21:46;12.10;99.90
3281;DHT22;1652;51.318;6.202;2023-03-13T05:24:13;12.20;99.90
3281;DHT22;1652;51.318;6.202;2023-03-13T05:26:39;12.20;99.90
3281;DHT22;1652;51.318;6.202;2023-03-13T05:29:06;12.30;99.90
3281;DHT22;1652;51.318;6.202;2023-03-13T05:31:33;12.30;99.90
3281;DHT22;1652;51.318;6.202;2023-03-13T05:34:00;12.30;99.90
3281;DHT22;1652;51.318;6.202;2023-03-13T05:36:27;12.40;99.90
3281;DHT22;1652;51.318;6.202;2023-03-13T05:38:53;12.40;99.90
3281;DHT22;1652;51.318;6.202;2023-03-13T05:41:20;12.40;99.90
3281;DHT22;1652;51.318;6.202;2023-03-13T05:43:47;12.50;99.90
3281;DHT22;1652;51.318;6.202;2023-03-13T05:46:14;12.50;99.90
3281;DHT22;1652;51.318;6.202;2023-03-13T05:48:41;12.50;99.90
3281;DHT22;1652;51.318;6.202;2023-03-13T05:51:07;12.50;99.90
3281;DHT22;1652;51.318;6.202;2023-03-13T05:53:34;12.60;99.90
3281;DHT22;1652;51.318;6.202;2023-03-13T05:56:01;12.60;99.90
3281;DHT22;1652;51.318;6.202;2023-03-13T05:58:28;12.60;99.90
3281;DHT22;1652;51.318;6.202;2023-03-13T06:00:54;12.60;99.90
3281;DHT22;1652;51.318;6.202;2023-03-13T06:03:21;12.60;99.90
3281;DHT22;1652;51.318;6.202;2023-03-13T06:05:48;12.60;99.90
3281;DHT22;1652;51.318;6.202;2023-03-13T06:08:15;12.70;99.90
3281;DHT22;1652;51.318;6.202;2023-03-13T06:10:41;12.70;99.90
3281;DHT22;1652;51.318;6.202;2023-03-13T06:13:08;12.70;99.90
3281;DHT22;1652;51.318;6.202;2023-03-13T06:15:53;12.70;99.90
3281;DHT22;1652;51.318;6.202;2023-03-13T06:18:20;12.70;99.90
3281;DHT22;1652;51.318;6.202;2023-03-13T06:20:48;12.70;99.90
3281;DHT22;1652;51.318;6.202;2023-03-13T06:23:16;12.70;99.90
3281;DHT22;1652;51.318;6.202;2023-03-13T06:25:46;12.70;99.90
3281;DHT22;1652;51.318;6.202;2023-03-13T06:28:14;12.80;99.90
3281;DHT22;1652;51.318;6.202;2023-03-13T06:30:41;12.80;99.90
3281;DHT22;1652;51.318;6.202;2023-03-13T06:33:08;12.80;99.90
3281;DHT22;1652;51.318;6.202;2023-03-13T06:35:39;12.90;99.90
3281;DHT22;1652;51.318;6.202;2023-03-13T06:38:21;12.90;99.90
3281;DHT22;1652;51.318;6.202;2023-03-13T06:40:47;12.90;99.90
3281;DHT22;1652;51.318;6.202;2023-03-13T06:43:14;13.00;99.90
3281;DHT22;1652;51.318;6.202;2023-03-13T06:45:41;13.00;99.90
3281;DHT22;1652;51.318;6.202;2023-03-13T06:48:08;13.00;99.90
3281;DHT22;1652;51.318;6.202;2023-03-13T06:50:37;13.00;99.90
3281;DHT22;1652;51.318;6.202;2023-03-13T06:53:04;13.10;99.90
3281;DHT22;1652;51.318;6.202;2023-03-13T06:55:32;13.10;99.90
3281;DHT22;1652;51.318;6.202;2023-03-13T06:57:58;13.10;99.90
3281;DHT22;1652;51.318;6.202;2023-03-13T07:00:25;13.20;99.90
3281;DHT22;1652;51.318;6.202;2023-03-13T07:02:52;13.20;99.90
3281;DHT22;1652;51.318;6.202;2023-03-13T07:05:19;13.20;99.90
3281;DHT22;1652;51.318;6.202;2023-03-13T07:07:46;13.30;99.90
3281;DHT22;1652;51.318;6.202;2023-03-13T07:10:13;13.20;99.90
3281;DHT22;1652;51.318;6.202;2023-03-13T07:12:40;13.30;99.90
3281;DHT22;1652;51.318;6.202;2023-03-13T07:15:07;13.40;99.90
3281;DHT22;1652;51.318;6.202;2023-03-13T07:17:34;13.40;99.90
3281;DHT22;1652;51.318;6.202;2023-03-13T07:20:01;13.40;99.90
3281;DHT22;1652;51.318;6.202;2023-03-13T07:22:28;13.50;99.90
3281;DHT22;1652;51.318;6.202;2023-03-13T07:24:55;13.50;99.90
3281;DHT22;1652;51.318;6.202;2023-03-13T07:27:22;13.50;99.90
3281;DHT22;1652;51.318;6.202;2023-03-13T07:29:49;13.50;99.90
3281;DHT22;1652;51.318;6.202;2023-03-13T07:32:15;13.50;99.90
3281;DHT22;1652;51.318;6.202;2023-03-13T07:34:43;13.60;99.90
3281;DHT22;1652;51.318;6.202;2023-03-13T07:37:14;13.60;99.90
3281;DHT22;1652;51.318;6.202;2023-03-13T07:39:42;13.50;99.90
3281;DHT22;1652;51.318;6.202;2023-03-13T07:42:10;13.60;99.90
3281;DHT22;1652;51.318;6.202;2023-03-13T07:44:37;13.60;99.90
3281;DHT22;1652;51.318;6.202;2023-03-13T07:47:04;13.60;99.90
3281;DHT22;1652;51.318;6.202;2023-03-13T07:49:31;13.50;99.90
3281;DHT22;1652;51.318;6.202;2023-03-13T07:51:59;13.60;99.90
3281;DHT22;1652;51.318;6.202;2023-03-13T07:54:26;13.60;99.90
3281;DHT22;1652;51.318;6.202;2023-03-13T07:56:52;13.70;99.90
3281;DHT22;1652;51.318;6.202;2023-03-13T07:59:19;13.80;99.90
3281;DHT22;1652;51.318;6.202;2023-03-13T08:01:49;13.90;99.90
3281;DHT22;1652;51.318;6.202;2023-03-13T08:04:16;13.90;99.90
3281;DHT22;1652;51.318;6.202;2023-03-13T08:06:42;14.00;99.90
3281;DHT22;1652;51.318;6.202;2023-03-13T08:09:09;14.00;99.90
3281;DHT22;1652;51.318;6.202;2023-03-13T08:11:38;14.00;99.90
3281;DHT22;1652;51.318;6.202;2023-03-13T08:14:06;14.00;99.90
3281;DHT22;1652;51.318;6.202;2023-03-13T08:16:34;14.10;99.90
3281;DHT22;1652;51.318;6.202;2023-03-13T08:19:02;14.10;99.90
3281;DHT22;1652;51.318;6.202;2023-03-13T08:21:33;14.20;99.90
3281;DHT22;1652;51.318;6.202;2023-03-13T08:24:03;14.10;99.90
3281;DHT22;1652;51.318;6.202;2023-03-13T08:26:34;14.10;99.90
3281;DHT22;1652;51.318;6.202;2023-03-13T08:29:10;14.10;99.90
3281;DHT22;1652;51.318;6.202;2023-03-13T08:31:44;14.00;99.90
3281;DHT22;1652;51.318;6.202;2023-03-13T08:34:14;14.00;99.90
3281;DHT22;1652;51.318;6.202;2023-03-13T08:36:41;14.00;99.90
3281;DHT22;1652;51.318;6.202;2023-03-13T08:39:13;14.10;99.90
3281;DHT22;1652;51.318;6.202;2023-03-13T08:41:41;14.20;99.90
3281;DHT22;1652;51.318;6.202;2023-03-13T08:44:13;14.40;99.90
3281;DHT22;1652;51.318;6.202;2023-03-13T08:46:40;14.70;99.90
3281;DHT22;1652;51.318;6.202;2023-03-13T08:49:08;15.00;99.90
3281;DHT22;1652;51.318;6.202;2023-03-13T08:51:35;15.10;99.90
3281;DHT22;1652;51.318;6.202;2023-03-13T08:54:03;15.20;99.90
3281;DHT22;1652;51.318;6.202;2023-03-13T08:56:31;15.30;99.90
3281;DHT22;1652;51.318;6.202;2023-03-13T08:59:00;15.60;99.90
3281;DHT22;1652;51.318;6.202;2023-03-13T09:01:34;16.10;99.90
3281;DHT22;1652;51.318;6.202;2023-03-13T09:04:04;16.10;99.90
3281;DHT22;1652;51.318;6.202;2023-03-13T09:06:33;16.00;99.90
3281;DHT22;1652;51.318;6.202;2023-03-13T09:09:01;15.90;99.90
3281;DHT22;1652;51.318;6.202;2023-03-13T09:11:28;15.80;99.90
3281;DHT22;1652;51.318;6.202;2023-03-13T09:13:55;15.90;99.90
3281;DHT22;1652;51.318;6.202;2023-03-13T09:16:27;15.90;99.90
3281;DHT22;1652;51.318;6.202;2023-03-13T09:18:56;15.90;99.90
3281;DHT22;1652;51.318;6.202;2023-03-13T09:21:28;15.80;99.90
3281;DHT22;1652;51.318;6.202;2023-03-13T09:23:56;15.70;99.90
3281;DHT22;1652;51.318;6.202;2023-03-13T09:26:24;15.70;99.90
3281;DHT22;1652;51.318;6.202;2023-03-13T09:28:52;15.90;99.90
3281;DHT22;1652;51.318;6.202;2023-03-13T09:31:24;16.00;99.90
3281;DHT22;1652;51.318;6.202;2023-03-13T09:33:51;15.90;99.90
3281;DHT22;1652;51.318;6.202;2023-03-13T09:36:19;15.90;99.90
3281;DHT22;1652;51.318;6.202;2023-03-13T09:38:50;15.90;99.90
3281;DHT22;1652;51.318;6.202;2023-03-13T09:43:54;16.30;97.20
3281;DHT22;1652;51.318;6.202;2023-03-13T09:46:27;16.40;91.40
3281;DHT22;1652;51.318;6.202;2023-03-13T09:48:59;16.30;91.50
3281;DHT22;1652;51.318;6.202;2023-03-13T09:51:35;16.30;96.50
3281;DHT22;1652;51.318;6.202;2023-03-13T09:54:27;16.50;91.90
3281;DHT22;1652;51.318;6.202;2023-03-13T09:57:14;16.60;91.50
3281;DHT22;1652;51.318;6.202;2023-03-13T09:59:48;16.60;77.40
3281;DHT22;1652;51.318;6.202;2023-03-13T10:04:57;16.40;87.80
3281;DHT22;1652;51.318;6.202;2023-03-13T10:07:26;16.20;88.70
3281;DHT22;1652;51.318;6.202;2023-03-13T10:09:52;16.10;93.80
3281;DHT22;1652;51.318;6.202;2023-03-13T10:12:23;16.00;97.10
3281;DHT22;1652;51.318;6.202;2023-03-13T10:17:29;16.50;92.40
3281;DHT22;1652;51.318;6.202;2023-03-13T10:20:23;16.60;55.90
3281;DHT22;1652;51.318;6.202;2023-03-13T10:27:54;16.70;36.40
3281;DHT22;1652;51.318;6.202;2023-03-13T10:30:25;16.90;38.60
3281;DHT22;1652;51.318;6.202;2023-03-13T10:33:00;16.90;30.30
3281;DHT22;1652;51.318;6.202;2023-03-13T10:35:41;16.80;32.20
3281;DHT22;1652;51.318;6.202;2023-03-13T10:38:19;16.80;25.90
3281;DHT22;1652;51.318;6.202;2023-03-13T10:40:59;16.70;32.50
3281;DHT22;1652;51.318;6.202;2023-03-13T10:43:29;16.70;28.50
3281;DHT22;1652;51.318;6.202;2023-03-13T10:45:56;16.60;36.80
3281;DHT22;1652;51.318;6.202;2023-03-13T10:48:29;16.60;41.40
3281;DHT22;1652;51.318;6.202;2023-03-13T10:50:56;16.80;33.40
3281;DHT22;1652;51.318;6.202;2023-03-13T10:53:32;16.90;30.50
3281;DHT22;1652;51.318;6.202;2023-03-13T10:56:13;17.00;15.80
3281;DHT22;1652;51.318;6.202;2023-03-13T10:58:48;17.10;25.30
3281;DHT22;1652;51.318;6.202;2023-03-13T11:01:40;17.20;15.70
3281;DHT22;1652;51.318;6.202;2023-03-13T11:04:33;17.10;9.20
3281;DHT22;1652;51.318;6.202;2023-03-13T11:07:09;17.10;8.20
3281;DHT22;1652;51.318;6.202;2023-03-13T11:09:37;16.90;17.20
3281;DHT22;1652;51.318;6.202;2023-03-13T11:12:11;16.80;21.30
3281;DHT22;1652;51.318;6.202;2023-03-13T11:14:39;17.00;22.20
3281;DHT22;1652;51.318;6.202;2023-03-13T11:17:41;17.10;14.70
3281;DHT22;1652;51.318;6.202;2023-03-13T11:20:24;17.10;1.00
3281;DHT22;1652;51.318;6.202;2023-03-13T11:25:34;17.20;5.80
3281;DHT22;1652;51.318;6.202;2023-03-13T11:33:38;17.30;1.00
3281;DHT22;1652;51.318;6.202;2023-03-13T11:36:22;17.30;1.00
3281;DHT22;1652;51.318;6.202;2023-03-13T11:42:30;17.40;1.00
3281;DHT22;1652;51.318;6.202;2023-03-13T11:50:57;17.30;1.00
3281;DHT22;1652;51.318;6.202;2023-03-13T11:59:50;17.30;1.00
3281;DHT22;1652;51.318;6.202;2023-03-13T12:02:32;17.50;1.00
3281;DHT22;1652;51.318;6.202;2023-03-13T12:05:05;17.50;1.00
3281;DHT22;1652;51.318;6.202;2023-03-13T12:07:35;17.60;1.00
3281;DHT22;1652;51.318;6.202;2023-03-13T12:10:15;17.60;1.00
3281;DHT22;1652;51.318;6.202;2023-03-13T12:12:50;17.70;1.00
3281;DHT22;1652;51.318;6.202;2023-03-13T12:15:40;17.70;1.00
3281;DHT22;1652;51.318;6.202;2023-03-13T12:21:00;17.60;1.00
3281;DHT22;1652;51.318;6.202;2023-03-13T12:26:20;17.50;1.00
3281;DHT22;1652;51.318;6.202;2023-03-13T12:31:28;17.50;1.00
3281;DHT22;1652;51.318;6.202;2023-03-13T12:34:10;17.50;1.00
3281;DHT22;1652;51.318;6.202;2023-03-13T12:36:47;17.60;1.00
3281;DHT22;1652;51.318;6.202;2023-03-13T12:42:43;17.60;1.00
3281;DHT22;1652;51.318;6.202;2023-03-13T12:45:19;17.40;1.00
3281;DHT22;1652;51.318;6.202;2023-03-13T12:48:19;17.20;1.00
3281;DHT22;1652;51.318;6.202;2023-03-13T12:53:40;17.20;1.00
3281;DHT22;1652;51.318;6.202;2023-03-13T12:59:21;17.50;1.00
3281;DHT22;1652;51.318;6.202;2023-03-13T13:01:53;17.70;1.00
3281;DHT22;1652;51.318;6.202;2023-03-13T13:04:26;17.70;1.00
3281;DHT22;1652;51.318;6.202;2023-03-13T13:09:31;17.70;1.00
3281;DHT22;1652;51.318;6.202;2023-03-13T13:19:57;17.40;1.00
3281;DHT22;1652;51.318;6.202;2023-03-13T13:30:50;17.50;1.00
3281;DHT22;1652;51.318;6.202;2023-03-13T13:32:53;17.60;1.00
3281;DHT22;1652;51.318;6.202;2023-03-13T13:35:27;17.60;1.00
3281;DHT22;1652;51.318;6.202;2023-03-13T13:43:38;17.10;1.00
3281;DHT22;1652;51.318;6.202;2023-03-13T13:48:44;17.00;1.00
3281;DHT22;1652;51.318;6.202;2023-03-13T13:53:46;17.10;1.00
3281;DHT22;1652;51.318;6.202;2023-03-13T13:59:33;17.30;1.00
3281;DHT22;1652;51.318;6.202;2023-03-13T14:05:01;17.20;1.00
3281;DHT22;1652;51.318;6.202;2023-03-13T14:07:31;17.10;1.00
3281;DHT22;1652;51.318;6.202;2023-03-13T14:12:56;16.90;1.00
3281;DHT22;1652;51.318;6.202;2023-03-13T14:15:31;16.80;1.00
3281;DHT22;1652;51.318;6.202;2023-03-13T14:18:29;16.80;1.00
3281;DHT22;1652;51.318;6.202;2023-03-13T14:21:03;16.90;1.00
3281;DHT22;1652;51.318;6.202;2023-03-13T14:28:49;17.10;1.00
3281;DHT22;1652;51.318;6.202;2023-03-13T14:31:28;17.20;1.00
3281;DHT22;1652;51.318;6.202;2023-03-13T14:34:01;17.30;1.00
3281;DHT22;1652;51.318;6.202;2023-03-13T14:36:28;17.30;1.00
3281;DHT22;1652;51.318;6.202;2023-03-13T14:38:57;17.20;1.00
3281;DHT22;1652;51.318;6.202;2023-03-13T14:41:29;17.20;1.00
3281;DHT22;1652;51.318;6.202;2023-03-13T14:44:02;17.30;1.00
3281;DHT22;1652;51.318;6.202;2023-03-13T14:46:31;17.30;1.00
3281;DHT22;1652;51.318;6.202;2023-03-13T14:51:41;16.80;1.00
3281;DHT22;1652;51.318;6.202;2023-03-13T14:59:36;16.70;1.00
3281;DHT22;1652;51.318;6.202;2023-03-13T15:02:25;16.60;1.00
3281;DHT22;1652;51.318;6.202;2023-03-13T15:05:05;16.60;1.00
3281;DHT22;1652;51.318;6.202;2023-03-13T15:07:41;16.70;1.00
3281;DHT22;1652;51.318;6.202;2023-03-13T15:10:21;16.80;1.00
3281;DHT22;1652;51.318;6.202;2023-03-13T15:12:49;16.80;1.00
3281;DHT22;1652;51.318;6.202;2023-03-13T15:15:16;16.70;1.00
3281;DHT22;1652;51.318;6.202;2023-03-13T15:17:43;16.70;1.00
3281;DHT22;1652;51.318;6.202;2023-03-13T15:20:14;16.60;1.00
3281;DHT22;1652;51.318;6.202;2023-03-13T15:22:44;16.60;1.00
3281;DHT22;1652;51.318;6.202;2023-03-13T15:25:22;16.70;1.00
3281;DHT22;1652;51.318;6.202;2023-03-13T15:27:49;16.80;1.00
3281;DHT22;1652;51.318;6.202;2023-03-13T15:30:19;16.70;1.00
3281;DHT22;1652;51.318;6.202;2023-03-13T15:32:46;16.50;1.00
3281;DHT22;1652;51.318;6.202;2023-03-13T15:35:28;16.50;1.00
3281;DHT22;1652;51.318;6.202;2023-03-13T15:37:57;16.40;1.00
3281;DHT22;1652;51.318;6.202;2023-03-13T15:40:24;16.30;1.00
3281;DHT22;1652;51.318;6.202;2023-03-13T15:42:52;16.20;1.00
3281;DHT22;1652;51.318;6.202;2023-03-13T15:45:19;16.20;1.00
3281;DHT22;1652;51.318;6.202;2023-03-13T15:47:46;16.10;1.00
3281;DHT22;1652;51.318;6.202;2023-03-13T15:52:45;16.00;1.00
3281;DHT22;1652;51.318;6.202;2023-03-13T15:55:12;15.90;1.00
3281;DHT22;1652;51.318;6.202;2023-03-13T15:57:43;15.90;1.00
3281;DHT22;1652;51.318;6.202;2023-03-13T16:02:46;15.80;1.00
3281;DHT22;1652;51.318;6.202;2023-03-13T16:05:13;15.80;1.00
3281;DHT22;1652;51.318;6.202;2023-03-13T16:07:39;15.80;1.00
3281;DHT22;1652;51.318;6.202;2023-03-13T16:10:24;15.70;1.00
3281;DHT22;1652;51.318;6.202;2023-03-13T16:12:52;15.80;1.00
3281;DHT22;1652;51.318;6.202;2023-03-13T16:15:19;15.70;1.00
3281;DHT22;1652;51.318;6.202;2023-03-13T16:17:46;15.60;1.00
3281;DHT22;1652;51.318;6.202;2023-03-13T16:20:16;15.60;1.00
3281;DHT22;1652;51.318;6.202;2023-03-13T16:22:43;15.60;1.00
3281;DHT22;1652;51.318;6.202;2023-03-13T16:25:10;15.50;1.00
3281;DHT22;1652;51.318;6.202;2023-03-13T16:27:37;15.50;1.00
3281;DHT22;1652;51.318;6.202;2023-03-13T16:30:14;15.40;1.00
3281;DHT22;1652;51.318;6.202;2023-03-13T16:32:43;15.40;1.00
3281;DHT22;1652;51.318;6.202;2023-03-13T16:35:10;15.30;1.00
3281;DHT22;1652;51.318;6.202;2023-03-13T16:37:37;15.30;1.00
3281;DHT22;1652;51.318;6.202;2023-03-13T16:42:42;15.20;1.00
3281;DHT22;1652;51.318;6.202;2023-03-13T16:45:10;15.10;1.00
3281;DHT22;1652;51.318;6.202;2023-03-13T16:47:36;15.10;1.00
3281;DHT22;1652;51.318;6.202;2023-03-13T16:50:21;15.00;1.00
3281;DHT22;1652;51.318;6.202;2023-03-13T16:52:49;15.00;1.00
3281;DHT22;1652;51.318;6.202;2023-03-13T16:55:17;14.90;1.00
3281;DHT22;1652;51.318;6.202;2023-03-13T16:57:45;15.00;1.00
3281;DHT22;1652;51.318;6.202;2023-03-13T17:00:17;14.80;1.00
3281;DHT22;1652;51.318;6.202;2023-03-13T17:02:44;14.80;1.00
3281;DHT22;1652;51.318;6.202;2023-03-13T17:05:11;14.70;1.00
3281;DHT22;1652;51.318;6.202;2023-03-13T17:07:43;14.70;1.00
3281;DHT22;1652;51.318;6.202;2023-03-13T17:10:22;14.70;1.00
3281;DHT22;1652;51.318;6.202;2023-03-13T17:12:49;14.80;1.00
3281;DHT22;1652;51.318;6.202;2023-03-13T17:15:16;14.80;1.00
3281;DHT22;1652;51.318;6.202;2023-03-13T17:17:44;14.70;1.00
3281;DHT22;1652;51.318;6.202;2023-03-13T17:20:19;14.70;1.00
3281;DHT22;1652;51.318;6.202;2023-03-13T17:22:47;14.70;1.00
3281;DHT22;1652;51.318;6.202;2023-03-13T17:25:13;14.70;1.00
3281;DHT22;1652;51.318;6.202;2023-03-13T17:27:42;14.70;1.00
3281;DHT22;1652;51.318;6.202;2023-03-13T17:30:17;14.70;1.00
3281;DHT22;1652;51.318;6.202;2023-03-13T17:32:45;14.60;1.00
3281;DHT22;1652;51.318;6.202;2023-03-13T17:35:12;14.60;1.00
3281;DHT22;1652;51.318;6.202;2023-03-13T17:37:39;14.50;1.00
3281;DHT22;1652;51.318;6.202;2023-03-13T17:40:19;14.50;1.00
3281;DHT22;1652;51.318;6.202;2023-03-13T17:42:47;14.50;1.00
3281;DHT22;1652;51.318;6.202;2023-03-13T17:45:14;14.50;1.00
3281;DHT22;1652;51.318;6.202;2023-03-13T17:47:41;14.40;1.00
3281;DHT22;1652;51.318;6.202;2023-03-13T17:50:15;14.50;1.00
3281;DHT22;1652;51.318;6.202;2023-03-13T17:52:41;14.40;1.00
3281;DHT22;1652;51.318;6.202;2023-03-13T17:55:09;14.30;1.00
3281;DHT22;1652;51.318;6.202;2023-03-13T17:57:36;14.30;1.00
3281;DHT22;1652;51.318;6.202;2023-03-13T18:00:25;14.30;1.00
3281;DHT22;1652;51.318;6.202;2023-03-13T18:02:51;14.10;1.00
3281;DHT22;1652;51.318;6.202;2023-03-13T18:05:19;14.10;1.00
3281;DHT22;1652;51.318;6.202;2023-03-13T18:07:53;14.10;1.00
3281;DHT22;1652;51.318;6.202;2023-03-13T18:10:23;14.10;1.00
3281;DHT22;1652;51.318;6.202;2023-03-13T18:12:51;14.00;1.00
3281;DHT22;1652;51.318;6.202;2023-03-13T18:15:19;14.00;1.00
3281;DHT22;1652;51.318;6.202;2023-03-13T18:17:47;13.90;1.00
3281;DHT22;1652;51.318;6.202;2023-03-13T18:20:17;13.90;1.00
3281;DHT22;1652;51.318;6.202;2023-03-13T18:22:45;13.80;1.00
3281;DHT22;1652;51.318;6.202;2023-03-13T18:25:12;13.80;1.00
3281;DHT22;1652;51.318;6.202;2023-03-13T18:27:39;13.80;1.00
3281;DHT22;1652;51.318;6.202;2023-03-13T18:30:33;13.70;1.00